Terminal Aerodrome Forecast
Issued by NWS

Home | Current Version | Previous Version | Text Only | Print | Product List | Glossary On
Versions: 1 2 3 4 5 6 7 8 9 10 11 12 13 14 15 16 17 18
000
FTUS41 KGYX 310631 AAA
TAFPSM
TAF AMD
KPSM 310631Z 3107/0106 19005KT P6SM BKN025
     FM310900 22005KT 4SM BR OVC007
     FM311200 23005KT 4SM BR OVC015
     FM311400 22009KT P6SM SCT020 BKN040
     FM312100 20008KT 6SM -SHRA BKN045=

USA.gov is the U.S. government's official web portal to all federal, state and local government web resources and services.